^^

Meteo Aereoporti Centro-Italia

 

 
LIRZ - Perugia S.Egidio (208 m.)
Dati ricevuti: 16/01/2019 08:50
Sereno
Sereno
 Vento da direzione variabile
Vento: direzione variabile 2 km/h
TEMPERATURA: -2°C
P.to di Rugiada: -5°C
Umidità: 80%
Pressione: 1024 hPa
Condizioni generali: Sereno
Visibilità: oltre 10 km
2019/01/16 07:50 LIRZ 160750Z VRB01KT CAVOK M02/M05 Q1024
 
LIPY - Ancona Falconara (12 m.)
Dati ricevuti: 16/01/2019 08:50
Sereno
Sereno
 Vento da S
Vento: S 13 km/h
TEMPERATURA: 9°C
Raffreddamento da Vento: 7°C
P.to di Rugiada: -2°C
Umidità: 46%
Pressione: 1021 hPa
Condizioni generali: Sereno
Visibilità: oltre 10 km
2019/01/16 07:50 LIPY 160750Z 19007KT CAVOK 09/M02 Q1021
 
LIPR - Rimini Miramare (12 m.)
Dati ricevuti: 16/01/2019 09:50
Sereno
Sereno
 Vento da S
Vento: S 11 km/h
TEMPERATURA: 11°C
P.to di Rugiada: -1°C
Umidità: 44%
Pressione: 1020 hPa
Condizioni generali: Sereno
Visibilità: oltre 10 km
2019/01/16 08:50 LIPR 160850Z 18006KT CAVOK 11/M01 Q1020
 
LIRF - Roma Fiumicino (2 m.)
Dati ricevuti: 16/01/2019 09:50
Poco nuvoloso
Poco nuvoloso
 Vento da E
Vento: E 11 km/h
TEMPERATURA: 8°C
Raffreddamento da Vento: 6°C
P.to di Rugiada: 3°C
Umidità: 71%
Pressione: 1024 hPa
Nuvole: Poco nuvoloso
Visibilità: 10 km
Dettagli Nuvole: Poco nuvoloso 1067 m
2019/01/16 08:50 LIRF 160850Z 10006KT 070V140 9999 SCT035 08/03 Q1024 NOSIG
 
LIRA - Roma Ciampino (129 m.)
Dati ricevuti: 16/01/2019 09:50
Sereno
Sereno
 Vento da SSE
Vento: SSE 9 km/h
TEMPERATURA: 12°C
P.to di Rugiada: 5°C
Umidità: 63%
Pressione: 1024 hPa
Condizioni generali: Sereno
Visibilità: oltre 10 km
2019/01/16 08:50 LIRA 160850Z 16005KT CAVOK 12/05 Q1024
 
LIRU - Roma Urbe (17 m.)
Dati ricevuti: 16/01/2019 08:50
Qualche nuvola
Qualche nuvola
 Vento da N
Vento: N 7 km/h
TEMPERATURA: 1°C
Raffreddamento da Vento: -2°C
P.to di Rugiada: -2°C
Umidità: 81%
Pressione: 1024 hPa
Nuvole: Qualche nuvola
Visibilità: 10 km
Dettagli Nuvole: Qualche nuvola 914 m
2019/01/16 07:50 LIRU 160750Z 36004KT 9999 FEW030 01/M02 Q1024
 
LIVF - Frontone (570 m.)
Dati ricevuti: 16/01/2019 07:55
Dati non aggiornati
Sereno
Sereno
 Vento da W
Vento: W 30 km/h, Raffica: 59 km/h
TEMPERATURA: 7°C
Raffreddamento da Vento: 3°C
P.to di Rugiada: -11°C
Umidità: 27%
Pressione: 1018 hPa
Condizioni generali: Sereno
Visibilità: oltre 10 km
2019/01/16 06:55 LIVF 160655Z 27016G32KT CAVOK 07/M11 Q1018
 
LIRQ - Firenze Peretola (40 m.)
Dati ricevuti: 16/01/2019 09:50
Sereno
Sereno
 Vento da direzione variabile
Vento: direzione variabile 2 km/h
TEMPERATURA: 6°C
P.to di Rugiada: 0°C
Umidità: 66%
Pressione: 1023 hPa
Condizioni generali: Sereno
Visibilità: oltre 10 km
2019/01/16 08:50 LIRQ 160850Z VRB01KT CAVOK 06/M00 Q1023
 
LIBP - Pescara (10 m.)
Dati ricevuti: 16/01/2019 08:50
Sereno
Sereno
 Vento da SW
Vento: SW 13 km/h
TEMPERATURA: 7°C
Raffreddamento da Vento: 5°C
P.to di Rugiada: -1°C
Umidità: 57%
Pressione: 1022 hPa
Condizioni generali: Sereno
Visibilità: oltre 10 km
2019/01/16 07:50 LIBP 160750Z 23007KT CAVOK 07/M01 Q1022
 
LIRV - Viterbo (300 m.)
Dati ricevuti: 16/01/2019 08:55
Poco nuvoloso
Poco nuvoloso
 Vento da direzione variabile
Vento: direzione variabile 0 km/h
TEMPERATURA: 1°C
P.to di Rugiada: -2°C
Umidità: 81%
Pressione: 1022 hPa
Nuvole: Poco nuvoloso
Visibilità: 10 km
Dettagli Nuvole: Poco nuvoloso 610 m
2019/01/16 07:55 LIRV 160755Z /////KT 9999 SCT020 01/M02 Q1022
 
LIQN - Rieti (389 m.)
Dati ricevuti: 15/01/2019 17:50
Dati non aggiornati
Sereno
Sereno
 Vento da direzione variabile
Vento: direzione variabile 6 km/h
TEMPERATURA: 4°C
P.to di Rugiada: -6°C
Umidità: 48%
Pressione: 1018 hPa
Condizioni generali: Sereno
Visibilità: oltre 10 km
2019/01/15 16:50 LIQN 151650Z VRB03KT CAVOK 04/M06 Q1018
 
LIRG - Guidonia -RM- (88 m.)
Dati ricevuti: 16/01/2019 08:55
Qualche nuvola
Qualche nuvola
 Vento da ENE
Vento: ENE 4 km/h
TEMPERATURA: 3°C
P.to di Rugiada: 3°C
Umidità: 100%
Pressione: 1024 hPa
Nuvole: Qualche nuvola
Visibilità: 10 km
Dettagli Nuvole: Qualche nuvola 1219 m
2019/01/16 07:55 LIRG 160755Z 07002KT 9999 FEW040 03/03 Q1024
 
LIRK - Terminillo -RI-(1874 m.)
Dati ricevuti: 16/01/2019 08:55

 Vento da WNW
Vento: WNW 24 km/h
TEMPERATURA: -5°C
Raffreddamento da Vento: -12°C
P.to di Rugiada: -8°C
Umidità: 80%
Pressione: 1020 hPa
2019/01/16 07:55 LIRK 160755Z AUTO 30013KT //// M05/M08 Q1020
 
LIPK - Forlì (27 m.)
Dati ricevuti: 15/01/2019 17:50
Dati non aggiornati
Sereno
Sereno
 Vento da calm
Vento: Calma
TEMPERATURA: 6°C
P.to di Rugiada: -7°C
Umidità: 39%
Pressione: 1018 hPa
Condizioni generali: Sereno
Visibilità: oltre 10 km
2019/01/15 16:50 LIPK 151650Z 00000KT CAVOK 06/M07 Q1018
 
LIRS - Grosseto (5 m.)
Dati ricevuti: 16/01/2019 08:55
Qualche nuvola
Qualche nuvola
 Vento da NNE
Vento: NNE 11 km/h
TEMPERATURA: 1°C
Raffreddamento da Vento: -2°C
P.to di Rugiada: -1°C
Umidità: 87%
Pressione: 1022 hPa
Nuvole: Qualche nuvola
Visibilità: 10 km
Dettagli Nuvole: Qualche nuvola 1219 m
2019/01/16 07:55 LIRS 160755Z 03006KT 9999 FEW040 01/M01 Q1022
 
LIRP - Pisa S.Giusto (2 m.)
Dati ricevuti: 16/01/2019 09:45
Sereno
Sereno
 Vento da ESE
Vento: ESE 4 km/h
TEMPERATURA: 5°C
P.to di Rugiada: 4°C
Umidità: 93%
Pressione: 1023 hPa
Condizioni generali: Sereno
Visibilità: oltre 10 km
2019/01/16 08:45 LIRP 160845Z 12002KT CAVOK 05/04 Q1023 NOSIG